Time;durP1;ratioP1;P1;durP2;ratioP2;P2;SDS_P1;SDS_P2;PMS_P1;PMS_P2;Temp;Humidity;BMP_temperature;BMP_pressure;BME280_temperature;BME280_humidity;BME280_pressure;Samples;Min_cycle;Max_cycle;Signal;HPM_P1;HPM_P2
2024/03/02 00:00:13;;;;;;;140.80;39.47;;;5.10;100.00;;;;;;5104324;27;20173;-73
2024/03/02 00:02:45;;;;;;;100.70;32.72;;;5.00;100.00;;;;;;5090727;27;20055;-73
2024/03/02 00:05:14;;;;;;;123.15;36.35;;;5.00;100.00;;;;;;5106542;27;20083;-73
2024/03/02 00:07:42;;;;;;;124.68;35.58;;;5.00;100.00;;;;;;5105176;27;20127;-73
2024/03/02 00:10:11;;;;;;;128.27;35.58;;;5.00;100.00;;;;;;5106734;28;20047;-73
2024/03/02 00:12:39;;;;;;;115.30;35.83;;;5.00;100.00;;;;;;5107967;27;20131;-73
2024/03/02 00:15:21;;;;;;;141.60;37.90;;;5.00;100.00;;;;;;5101615;27;20075;-73
2024/03/02 00:17:53;;;;;;;119.15;35.83;;;5.00;100.00;;;;;;5099588;27;20656;-73
2024/03/02 00:20:22;;;;;;;123.90;36.35;;;5.00;100.00;;;;;;5080943;28;20047;-73
2024/03/02 00:22:50;;;;;;;122.28;35.88;;;4.90;100.00;;;;;;5094692;27;20543;-73
2024/03/02 00:25:17;;;;;;;113.50;36.35;;;5.00;100.00;;;;;;5077719;28;20052;-73
2024/03/02 00:27:49;;;;;;;124.13;39.00;;;5.00;100.00;;;;;;5103160;28;20051;-73
2024/03/02 00:30:54;;;;;;;126.35;36.20;;;5.00;100.00;;;;;;5103088;27;20047;-72
2024/03/02 00:33:22;;;;;;;132.33;37.97;;;4.90;100.00;;;;;;5098236;28;20047;-73
2024/03/02 00:35:50;;;;;;;123.57;35.78;;;4.90;100.00;;;;;;5106052;28;20105;-73
2024/03/02 00:38:17;;;;;;;125.43;38.10;;;4.90;100.00;;;;;;5103409;28;20582;-73
2024/03/02 00:40:45;;;;;;;131.73;38.63;;;5.00;100.00;;;;;;5085514;28;20052;-73
2024/03/02 00:43:27;;;;;;;134.68;40.28;;;5.00;100.00;;;;;;5085309;28;20101;-73
2024/03/02 00:45:55;;;;;;;131.18;38.33;;;5.00;100.00;;;;;;5106754;27;20519;-73
2024/03/02 00:48:21;;;;;;;133.57;37.50;;;5.00;100.00;;;;;;5084514;28;20123;-73
2024/03/02 00:50:52;;;;;;;143.55;41.10;;;5.00;100.00;;;;;;5089586;28;20488;-73
2024/03/02 00:53:24;;;;;;;110.00;37.42;;;5.10;100.00;;;;;;5100575;27;20147;-73
2024/03/02 00:55:51;;;;;;;137.80;40.65;;;5.10;100.00;;;;;;5109759;27;20101;-73
2024/03/02 00:58:18;;;;;;;137.82;39.33;;;5.10;100.00;;;;;;5085049;28;20360;-73
2024/03/02 01:00:45;;;;;;;132.20;38.53;;;5.10;100.00;;;;;;5107270;27;20877;-73
2024/03/02 01:03:12;;;;;;;138.48;39.70;;;5.10;100.00;;;;;;5097080;28;20048;-73
2024/03/02 01:05:42;;;;;;;134.32;40.63;;;5.10;100.00;;;;;;5101801;28;20054;-72
2024/03/02 01:08:10;;;;;;;140.68;41.55;;;5.10;100.00;;;;;;5101503;28;20040;-73
2024/03/02 01:10:37;;;;;;;134.00;39.33;;;5.10;100.00;;;;;;5104011;28;20537;-73
2024/03/02 01:13:04;;;;;;;120.55;39.92;;;5.10;100.00;;;;;;5096637;28;20044;-74
2024/03/02 01:15:30;;;;;;;142.80;39.92;;;5.10;100.00;;;;;;5105725;28;20124;-74
2024/03/02 01:17:57;;;;;;;140.73;41.22;;;5.20;100.00;;;;;;5086276;28;20882;-73
2024/03/02 01:20:24;;;;;;;133.95;39.42;;;5.20;100.00;;;;;;5102878;28;20462;-73
2024/03/02 01:22:52;;;;;;;141.93;40.38;;;5.20;100.00;;;;;;5102603;28;20051;-73
2024/03/02 01:25:19;;;;;;;139.52;38.95;;;5.20;100.00;;;;;;5103067;28;20047;-73
2024/03/02 01:27:45;;;;;;;136.55;40.22;;;5.20;100.00;;;;;;5084796;28;20083;-73
2024/03/02 01:30:16;;;;;;;133.70;39.58;;;5.20;100.00;;;;;;5085268;28;20699;-73
2024/03/02 01:32:43;;;;;;;136.18;39.15;;;5.20;100.00;;;;;;5101595;28;20059;-73
2024/03/02 01:35:10;;;;;;;136.55;41.15;;;5.20;100.00;;;;;;5084526;28;20146;-74
2024/03/02 01:37:37;;;;;;;139.10;41.13;;;5.20;100.00;;;;;;5109683;27;20108;-74
2024/03/02 01:40:08;;;;;;;140.02;41.15;;;5.20;100.00;;;;;;5110247;27;20048;-74
2024/03/02 01:42:39;;;;;;;142.85;42.15;;;5.20;100.00;;;;;;5112534;27;20062;-74
2024/03/02 01:45:07;;;;;;;137.65;42.10;;;5.20;100.00;;;;;;5106470;28;20048;-74
2024/03/02 01:47:35;;;;;;;133.30;39.95;;;5.20;100.00;;;;;;5108207;27;20507;-74
2024/03/02 01:50:02;;;;;;;139.38;42.10;;;5.20;100.00;;;;;;5106023;28;20713;-74
2024/03/02 01:52:29;;;;;;;139.93;40.90;;;5.20;100.00;;;;;;5107149;27;20067;-74
2024/03/02 01:54:57;;;;;;;131.77;40.15;;;5.20;100.00;;;;;;5104867;28;20055;-74
2024/03/02 01:57:24;;;;;;;135.70;40.40;;;5.20;100.00;;;;;;5108910;27;20519;-73
2024/03/02 01:59:51;;;;;;;122.40;39.00;;;5.20;100.00;;;;;;5090494;28;21584;-73
2024/03/02 02:02:18;;;;;;;144.18;42.10;;;5.20;100.00;;;;;;5109338;27;20053;-74
2024/03/02 02:04:44;;;;;;;135.43;40.22;;;5.20;100.00;;;;;;5104235;27;20055;-73
2024/03/02 02:07:11;;;;;;;141.15;42.83;;;5.20;100.00;;;;;;5109812;27;20159;-73
2024/03/02 02:09:38;;;;;;;144.57;40.80;;;5.30;100.00;;;;;;5104627;28;20059;-74
2024/03/02 02:12:06;;;;;;;146.50;42.90;;;5.20;100.00;;;;;;5104999;28;20622;-74
2024/03/02 02:14:33;;;;;;;145.70;40.17;;;5.20;100.00;;;;;;5106560;28;20077;-74
2024/03/02 02:17:00;;;;;;;142.80;40.63;;;5.20;100.00;;;;;;5104396;27;20058;-74
2024/03/02 02:19:27;;;;;;;147.32;40.47;;;5.20;100.00;;;;;;5086051;28;20062;-74
2024/03/02 02:21:55;;;;;;;141.73;41.08;;;5.20;100.00;;;;;;5086028;28;20092;-74
2024/03/02 02:24:21;;;;;;;132.35;40.08;;;5.20;100.00;;;;;;5105074;27;20055;-74
2024/03/02 02:26:48;;;;;;;138.45;40.53;;;5.30;100.00;;;;;;5104418;27;20519;-74
2024/03/02 02:29:15;;;;;;;135.45;40.55;;;5.20;100.00;;;;;;5087063;28;20490;-74
2024/03/02 02:31:42;;;;;;;132.23;40.22;;;5.30;100.00;;;;;;5104335;27;20043;-74
2024/03/02 02:34:09;;;;;;;131.32;40.13;;;5.30;100.00;;;;;;5112189;27;20058;-74
2024/03/02 02:36:39;;;;;;;131.40;40.10;;;5.20;100.00;;;;;;5087535;28;20051;-73
2024/03/02 02:39:13;;;;;;;134.55;40.88;;;5.20;100.00;;;;;;5097321;28;21762;-74
2024/03/02 02:41:39;;;;;;;146.55;41.72;;;5.20;100.00;;;;;;5102828;27;20048;-73
2024/03/02 02:44:06;;;;;;;127.88;39.25;;;5.20;100.00;;;;;;5087520;28;20207;-73
2024/03/02 02:46:33;;;;;;;151.63;41.08;;;5.20;100.00;;;;;;5092312;27;20122;-74
2024/03/02 02:49:00;;;;;;;138.23;41.58;;;5.10;100.00;;;;;;5105240;27;20083;-73
2024/03/02 02:51:27;;;;;;;139.27;42.60;;;5.10;100.00;;;;;;5103738;28;20401;-73
2024/03/02 02:53:53;;;;;;;132.85;37.28;;;5.10;100.00;;;;;;5104521;28;20036;-73
2024/03/02 02:56:20;;;;;;;127.05;38.90;;;5.10;100.00;;;;;;5105837;27;20047;-73
2024/03/02 02:58:47;;;;;;;137.93;40.35;;;5.00;100.00;;;;;;5105091;28;20062;-73
2024/03/02 03:01:17;;;;;;;135.75;39.75;;;5.00;100.00;;;;;;5088168;28;20610;-73
2024/03/02 03:03:45;;;;;;;149.32;41.47;;;5.00;100.00;;;;;;5111291;27;20043;-73
2024/03/02 03:06:12;;;;;;;140.90;41.30;;;5.00;100.00;;;;;;5087597;28;20047;-74
2024/03/02 03:08:39;;;;;;;140.65;40.15;;;5.00;100.00;;;;;;5108354;27;20529;-74
2024/03/02 03:11:06;;;;;;;144.50;38.80;;;5.00;100.00;;;;;;5103467;27;20181;-73
2024/03/02 03:13:34;;;;;;;143.18;39.58;;;5.00;100.00;;;;;;5104603;27;20086;-73
2024/03/02 03:16:01;;;;;;;141.32;41.25;;;5.00;100.00;;;;;;5104954;28;20051;-73
2024/03/02 03:18:28;;;;;;;149.30;40.35;;;5.00;100.00;;;;;;5090547;27;20058;-74
2024/03/02 03:20:54;;;;;;;146.13;40.15;;;5.00;100.00;;;;;;5105465;27;20051;-73
2024/03/02 03:23:21;;;;;;;136.05;39.75;;;5.00;100.00;;;;;;5105814;27;20047;-74
2024/03/02 03:25:48;;;;;;;140.13;41.17;;;5.00;100.00;;;;;;5104390;27;20054;-73
2024/03/02 03:28:15;;;;;;;150.95;42.63;;;5.00;100.00;;;;;;5105995;27;20169;-73
2024/03/02 03:30:41;;;;;;;131.75;40.97;;;5.00;100.00;;;;;;5105946;27;20455;-73
2024/03/02 03:33:08;;;;;;;136.85;40.00;;;5.00;100.00;;;;;;5089872;27;20047;-73
2024/03/02 03:35:37;;;;;;;139.18;40.72;;;5.10;100.00;;;;;;5104375;27;20134;-73
2024/03/02 03:38:04;;;;;;;141.15;39.10;;;5.10;100.00;;;;;;5091108;28;20047;-73
2024/03/02 03:40:31;;;;;;;144.30;40.05;;;5.10;100.00;;;;;;5083168;28;20074;-73
2024/03/02 03:42:58;;;;;;;138.00;38.90;;;5.20;100.00;;;;;;5111375;27;20134;-73
2024/03/02 03:45:26;;;;;;;147.23;41.17;;;5.20;100.00;;;;;;5079966;22;20052;-73
2024/03/02 03:47:54;;;;;;;140.15;40.88;;;5.20;100.00;;;;;;5041257;28;20170;-73
2024/03/02 03:50:21;;;;;;;138.00;40.67;;;5.20;100.00;;;;;;5043628;28;20037;-73
2024/03/02 03:52:48;;;;;;;138.93;41.83;;;5.20;100.00;;;;;;5039689;28;20053;-73
2024/03/02 03:55:15;;;;;;;138.73;41.20;;;5.30;100.00;;;;;;5036733;28;20537;-73
2024/03/02 03:57:41;;;;;;;141.90;40.38;;;5.30;100.00;;;;;;5036668;28;20584;-73
2024/03/02 04:00:10;;;;;;;148.32;40.95;;;5.30;100.00;;;;;;5039033;28;20058;-73
2024/03/02 04:02:37;;;;;;;135.07;39.78;;;5.40;100.00;;;;;;5043756;28;20059;-73
2024/03/02 04:05:08;;;;;;;158.65;43.08;;;5.40;100.00;;;;;;5039532;28;20042;-73
2024/03/02 04:07:40;;;;;;;152.90;41.67;;;5.50;100.00;;;;;;5037929;28;20049;-73
2024/03/02 04:10:48;;;;;;;144.48;41.47;;;5.50;100.00;;;;;;5037943;28;20095;-74
2024/03/02 04:13:15;;;;;;;149.98;41.17;;;5.50;100.00;;;;;;5037385;28;20077;-74
2024/03/02 04:15:42;;;;;;;142.35;42.55;;;5.60;100.00;;;;;;5046197;28;20053;-74
2024/03/02 04:18:09;;;;;;;140.60;39.88;;;5.60;100.00;;;;;;5042523;28;20057;-74
2024/03/02 04:20:36;;;;;;;152.48;42.38;;;5.60;100.00;;;;;;5043619;28;20064;-74
2024/03/02 04:23:03;;;;;;;142.10;42.25;;;5.60;100.00;;;;;;5043814;28;20407;-74
2024/03/02 04:25:29;;;;;;;146.20;41.25;;;5.70;100.00;;;;;;5042449;28;20053;-74
2024/03/02 04:27:56;;;;;;;141.82;42.72;;;5.70;100.00;;;;;;5038990;28;20081;-74
2024/03/02 04:30:23;;;;;;;149.25;42.65;;;5.70;100.00;;;;;;5040788;28;20075;-74
2024/03/02 04:32:50;;;;;;;150.40;42.88;;;5.70;100.00;;;;;;5042233;28;20052;-73
2024/03/02 04:35:17;;;;;;;144.85;40.28;;;5.70;100.00;;;;;;5039886;28;20053;-73
2024/03/02 04:37:43;;;;;;;138.20;40.85;;;5.70;100.00;;;;;;5038590;28;20166;-73
2024/03/02 04:40:11;;;;;;;149.43;43.33;;;5.80;100.00;;;;;;5033292;28;20076;-73
2024/03/02 04:42:38;;;;;;;130.63;38.78;;;5.80;100.00;;;;;;5041485;28;20057;-73
2024/03/02 04:45:05;;;;;;;159.43;41.05;;;5.80;100.00;;;;;;5039157;28;20130;-72
2024/03/02 04:47:32;;;;;;;135.43;39.28;;;5.80;100.00;;;;;;5034573;28;20080;-72
2024/03/02 04:49:59;;;;;;;138.40;40.65;;;5.80;100.00;;;;;;5033726;28;20130;-72
2024/03/02 04:52:25;;;;;;;140.18;38.30;;;5.80;100.00;;;;;;5045601;22;20115;-72
2024/03/02 04:55:24;;;;;;;139.32;39.00;;;5.80;100.00;;;;;;5035190;28;20052;-73
2024/03/02 04:57:54;;;;;;;158.32;40.55;;;5.80;100.00;;;;;;5057071;28;20527;-73
2024/03/02 05:00:21;;;;;;;142.13;40.15;;;5.80;100.00;;;;;;5037099;28;20144;-73
2024/03/02 05:02:48;;;;;;;134.45;39.67;;;5.80;100.00;;;;;;5042892;28;20059;-73
2024/03/02 05:05:15;;;;;;;140.38;39.70;;;5.80;100.00;;;;;;5053535;28;20094;-73
2024/03/02 05:07:43;;;;;;;149.45;40.33;;;5.80;100.00;;;;;;5031485;28;20561;-73
2024/03/02 05:10:14;;;;;;;141.05;39.70;;;5.80;100.00;;;;;;5040730;28;20057;-73
2024/03/02 05:15:13;;;;;;;137.63;40.85;;;5.90;100.00;;;;;;5053295;28;20400;-73
2024/03/02 05:17:42;;;;;;;147.32;39.50;;;5.90;100.00;;;;;;5052474;28;20057;-73
2024/03/02 05:20:10;;;;;;;161.38;42.20;;;5.90;100.00;;;;;;5036534;28;20071;-73
2024/03/02 05:22:38;;;;;;;134.60;38.08;;;5.90;100.00;;;;;;5054647;28;20409;-73
2024/03/02 05:25:06;;;;;;;148.48;39.75;;;5.90;100.00;;;;;;5050150;28;20268;-73
2024/03/02 05:27:33;;;;;;;145.65;40.25;;;5.90;100.00;;;;;;5050791;28;20114;-73
2024/03/02 05:30:00;;;;;;;149.80;42.22;;;5.90;100.00;;;;;;5053874;28;20146;-73
2024/03/02 05:32:27;;;;;;;135.35;39.05;;;5.90;100.00;;;;;;5057474;28;20398;-73
2024/03/02 05:34:54;;;;;;;143.90;39.92;;;5.90;100.00;;;;;;5055970;28;20048;-73
2024/03/02 05:37:21;;;;;;;147.05;38.00;;;5.90;100.00;;;;;;5054276;28;20049;-73
2024/03/02 05:39:49;;;;;;;133.07;40.55;;;5.90;100.00;;;;;;5057576;28;20052;-73
2024/03/02 05:42:19;;;;;;;126.75;37.78;;;6.00;100.00;;;;;;5057247;28;20052;-73
2024/03/02 05:44:46;;;;;;;150.95;38.88;;;6.00;100.00;;;;;;5051033;28;20055;-73
2024/03/02 05:47:13;;;;;;;133.45;37.53;;;6.00;100.00;;;;;;5041420;28;20049;-73
2024/03/02 05:49:39;;;;;;;127.63;39.95;;;6.00;100.00;;;;;;5035252;28;20110;-73
2024/03/02 05:52:06;;;;;;;153.52;40.45;;;6.00;100.00;;;;;;5054291;28;20056;-73
2024/03/02 05:54:33;;;;;;;154.48;37.53;;;6.00;100.00;;;;;;5051661;28;20643;-73
2024/03/02 05:57:16;;;;;;;140.85;39.08;;;6.00;100.00;;;;;;5055239;28;20556;-73
2024/03/02 05:59:44;;;;;;;133.40;38.90;;;6.00;100.00;;;;;;5050152;28;20195;-73
2024/03/02 06:02:11;;;;;;;133.07;39.63;;;6.00;100.00;;;;;;5037771;28;20075;-73
2024/03/02 06:04:38;;;;;;;145.25;38.67;;;6.00;100.00;;;;;;5058729;28;20421;-73
2024/03/02 06:07:05;;;;;;;140.35;38.47;;;6.00;100.00;;;;;;5055120;28;20123;-72
2024/03/02 06:09:32;;;;;;;151.65;40.90;;;6.10;100.00;;;;;;5054182;28;20468;-72
2024/03/02 06:11:59;;;;;;;145.20;38.55;;;6.10;100.00;;;;;;5055795;28;20041;-73
2024/03/02 06:14:25;;;;;;;159.02;37.95;;;6.10;100.00;;;;;;5059823;28;20076;-73
2024/03/02 06:16:52;;;;;;;137.02;39.63;;;6.10;100.00;;;;;;5057048;28;20044;-73
2024/03/02 06:22:26;;;;;;;133.90;38.63;;;6.10;100.00;;;;;;4993250;28;20057;-72
2024/03/02 06:24:53;;;;;;;172.13;39.78;;;6.10;100.00;;;;;;5000030;28;20490;-72
2024/03/02 06:27:19;;;;;;;144.82;39.13;;;6.10;100.00;;;;;;5004763;28;20153;-72
2024/03/02 06:29:47;;;;;;;151.77;39.05;;;6.10;100.00;;;;;;5001657;28;20050;-73
2024/03/02 06:32:13;;;;;;;174.60;42.35;;;6.10;100.00;;;;;;4976432;28;20077;-73
2024/03/02 06:34:40;;;;;;;167.50;40.80;;;6.10;100.00;;;;;;5001508;28;20060;-73
2024/03/02 06:37:07;;;;;;;154.07;40.97;;;6.10;100.00;;;;;;4996549;28;20829;-73
2024/03/02 06:39:34;;;;;;;145.80;41.58;;;6.10;100.00;;;;;;5002875;28;20141;-73
2024/03/02 06:42:01;;;;;;;155.57;41.30;;;6.10;100.00;;;;;;4994684;28;20052;-73
2024/03/02 06:44:28;;;;;;;140.45;40.95;;;6.20;100.00;;;;;;5004430;28;20073;-73
2024/03/02 06:46:55;;;;;;;149.35;38.78;;;6.20;100.00;;;;;;5002118;28;20210;-73
2024/03/02 06:49:21;;;;;;;163.93;40.28;;;6.20;100.00;;;;;;4980363;28;20116;-73
2024/03/02 06:51:49;;;;;;;148.95;39.40;;;6.20;100.00;;;;;;4975981;28;20148;-73
2024/03/02 06:54:16;;;;;;;146.27;40.03;;;6.20;100.00;;;;;;4998226;28;20101;-73
2024/03/02 06:56:43;;;;;;;155.82;39.60;;;6.20;100.00;;;;;;4991072;28;20050;-73
2024/03/02 06:59:10;;;;;;;164.43;42.15;;;6.20;100.00;;;;;;4997138;28;20645;-73
2024/03/02 07:01:37;;;;;;;156.35;39.80;;;6.30;100.00;;;;;;4980475;28;20062;-73
2024/03/02 07:04:06;;;;;;;139.95;39.03;;;6.30;100.00;;;;;;4988876;28;20338;-73
2024/03/02 07:06:33;;;;;;;146.05;40.55;;;6.30;100.00;;;;;;4985058;28;20534;-73
2024/03/02 07:09:00;;;;;;;172.43;39.03;;;6.30;100.00;;;;;;4997055;28;20477;-73
2024/03/02 07:11:27;;;;;;;178.38;38.85;;;6.30;100.00;;;;;;4978425;28;20904;-73
2024/03/02 07:13:54;;;;;;;165.63;39.03;;;6.30;100.00;;;;;;4997281;28;20050;-73
2024/03/02 07:18:51;;;;;;;149.77;37.75;;;6.40;100.00;;;;;;4998600;28;20051;-73
2024/03/02 07:21:18;;;;;;;136.88;39.17;;;6.40;100.00;;;;;;4987161;28;20065;-73
2024/03/02 07:23:45;;;;;;;162.02;42.10;;;6.50;100.00;;;;;;5001738;28;20525;-73
2024/03/02 07:26:12;;;;;;;166.55;44.88;;;6.50;100.00;;;;;;5003998;28;20128;-73
2024/03/02 07:28:43;;;;;;;179.68;44.67;;;6.50;100.00;;;;;;4989979;28;20163;-73
2024/03/02 07:31:10;;;;;;;157.55;42.03;;;6.60;100.00;;;;;;5003834;28;20580;-73
2024/03/02 07:33:37;;;;;;;155.23;41.08;;;6.60;100.00;;;;;;4992562;28;20050;-73
2024/03/02 07:36:04;;;;;;;164.40;41.10;;;6.70;100.00;;;;;;4998494;28;20493;-73
2024/03/02 07:38:33;;;;;;;165.80;41.13;;;6.70;100.00;;;;;;4979262;28;20061;-73
2024/03/02 07:41:00;;;;;;;152.70;41.30;;;6.80;100.00;;;;;;5002077;28;20089;-73
2024/03/02 07:43:27;;;;;;;151.40;39.88;;;6.80;100.00;;;;;;5001720;28;20049;-73
2024/03/02 07:45:55;;;;;;;153.30;39.30;;;6.80;100.00;;;;;;4999899;28;20056;-74
2024/03/02 07:48:22;;;;;;;167.90;41.03;;;6.90;100.00;;;;;;4997691;28;20170;-73
2024/03/02 07:50:49;;;;;;;161.13;41.00;;;6.90;100.00;;;;;;4999330;28;20576;-73
2024/03/02 07:53:16;;;;;;;142.30;38.60;;;7.00;100.00;;;;;;5002062;28;20584;-73
2024/03/02 07:55:43;;;;;;;174.35;40.83;;;7.00;100.00;;;;;;4996684;28;20446;-74
2024/03/02 07:58:11;;;;;;;161.70;42.30;;;7.10;100.00;;;;;;4992163;28;20057;-74
2024/03/02 08:00:40;;;;;;;164.70;41.17;;;7.10;100.00;;;;;;4996052;28;20478;-77
2024/03/02 08:03:10;;;;;;;157.25;42.33;;;7.10;100.00;;;;;;4996209;28;20134;-82
2024/03/02 08:05:38;;;;;;;158.00;39.95;;;7.10;100.00;;;;;;4994579;28;20053;-75
2024/03/02 08:08:05;;;;;;;160.13;41.75;;;7.10;100.00;;;;;;4986126;28;20089;-80
2024/03/02 08:10:33;;;;;;;136.43;40.50;;;7.10;100.00;;;;;;4981524;28;20561;-76
2024/03/02 08:13:00;;;;;;;151.95;40.80;;;7.20;100.00;;;;;;5001490;28;20465;-77
2024/03/02 08:15:27;;;;;;;161.00;40.80;;;7.20;100.00;;;;;;5003144;28;20558;-78
2024/03/02 08:17:54;;;;;;;163.82;41.80;;;7.20;100.00;;;;;;4999551;28;20053;-78
2024/03/02 08:20:21;;;;;;;155.73;41.72;;;7.30;100.00;;;;;;4983573;28;20058;-79
2024/03/02 08:22:47;;;;;;;168.45;42.22;;;7.30;100.00;;;;;;4995207;28;20502;-75
2024/03/02 08:25:17;;;;;;;142.40;39.72;;;7.30;100.00;;;;;;4984417;28;20077;-74
2024/03/02 08:27:44;;;;;;;159.52;41.47;;;7.40;100.00;;;;;;4997951;28;20049;-77
2024/03/02 08:30:12;;;;;;;151.13;42.58;;;7.50;100.00;;;;;;4994743;28;20266;-75
2024/03/02 08:32:40;;;;;;;154.48;42.75;;;7.60;100.00;;;;;;5001426;28;20073;-76
2024/03/02 08:35:07;;;;;;;158.20;42.92;;;7.70;100.00;;;;;;4975724;28;20440;-78
2024/03/02 08:37:34;;;;;;;151.10;41.00;;;7.80;100.00;;;;;;4991113;28;20446;-77
2024/03/02 08:40:01;;;;;;;150.98;41.55;;;7.90;100.00;;;;;;4996291;28;20072;-74
2024/03/02 08:42:28;;;;;;;142.43;39.63;;;7.90;100.00;;;;;;4991909;28;20064;-73
2024/03/02 08:44:55;;;;;;;161.52;42.45;;;7.90;100.00;;;;;;4978681;28;20061;-73
2024/03/02 08:47:22;;;;;;;149.50;41.40;;;8.00;100.00;;;;;;4998900;28;20049;-72
2024/03/02 08:49:49;;;;;;;139.55;41.50;;;8.10;100.00;;;;;;4999204;28;20578;-77
2024/03/02 08:52:15;;;;;;;152.02;41.28;;;8.10;100.00;;;;;;4999097;28;20042;-73
2024/03/02 08:54:42;;;;;;;148.45;43.00;;;8.20;100.00;;;;;;4994657;28;20049;-73
2024/03/02 08:57:09;;;;;;;153.93;42.53;;;8.20;100.00;;;;;;4983572;28;20050;-73
2024/03/02 08:59:36;;;;;;;151.85;43.35;;;8.20;100.00;;;;;;4995462;28;20077;-75
2024/03/02 09:02:03;;;;;;;151.88;42.83;;;8.30;100.00;;;;;;4974460;28;20085;-74
2024/03/02 09:04:30;;;;;;;152.52;42.42;;;8.30;100.00;;;;;;4997938;28;20558;-74
2024/03/02 09:07:01;;;;;;;133.75;40.80;;;8.40;100.00;;;;;;4986199;28;20054;-73
2024/03/02 09:09:28;;;;;;;146.90;40.65;;;8.40;100.00;;;;;;5006726;28;20050;-73
2024/03/02 09:11:57;;;;;;;159.30;43.15;;;8.40;100.00;;;;;;5001418;28;20069;-74
2024/03/02 09:14:24;;;;;;;142.88;41.35;;;8.40;100.00;;;;;;4986698;28;20661;-74
2024/03/02 09:16:51;;;;;;;151.93;42.92;;;8.30;100.00;;;;;;5001889;28;20483;-74
2024/03/02 09:19:18;;;;;;;151.38;40.53;;;8.30;100.00;;;;;;5003597;28;20046;-73
2024/03/02 09:21:45;;;;;;;142.68;42.20;;;8.30;100.00;;;;;;5006184;28;20116;-73
2024/03/02 09:24:12;;;;;;;154.57;42.63;;;8.30;100.00;;;;;;4995738;28;20054;-73
2024/03/02 09:26:44;;;;;;;159.07;41.70;;;8.30;100.00;;;;;;5002930;28;20161;-73
2024/03/02 09:29:10;;;;;;;152.18;42.22;;;8.20;100.00;;;;;;4997288;28;20045;-74
2024/03/02 09:31:41;;;;;;;143.00;41.33;;;8.20;100.00;;;;;;4997397;28;20391;-74
2024/03/02 09:34:08;;;;;;;152.30;40.78;;;8.30;100.00;;;;;;5002634;28;20756;-73
2024/03/02 09:36:35;;;;;;;148.82;42.70;;;8.30;100.00;;;;;;4994875;28;20646;-73
2024/03/02 09:39:03;;;;;;;149.63;41.60;;;8.30;100.00;;;;;;4986392;28;20042;-73
2024/03/02 09:41:32;;;;;;;141.02;43.85;;;8.30;100.00;;;;;;4984547;28;20648;-72
2024/03/02 09:44:00;;;;;;;131.48;40.13;;;8.40;100.00;;;;;;5004907;28;20054;-73
2024/03/02 09:46:27;;;;;;;148.65;43.78;;;8.40;100.00;;;;;;4987284;28;20145;-73
2024/03/02 09:48:54;;;;;;;141.80;42.17;;;8.40;100.00;;;;;;4986586;28;20054;-73
2024/03/02 09:51:21;;;;;;;138.38;40.20;;;8.50;100.00;;;;;;4979909;28;20104;-73
2024/03/02 09:54:10;;;;;;;144.57;44.22;;;8.50;100.00;;;;;;5001194;28;20140;-73
2024/03/02 09:56:47;;;;;;;147.18;41.42;;;8.60;100.00;;;;;;4985865;28;20057;-73
2024/03/02 09:59:17;;;;;;;153.30;42.45;;;8.70;100.00;;;;;;5005075;28;20050;-73
2024/03/02 10:02:01;;;;;;;156.05;44.20;;;8.70;100.00;;;;;;5004041;28;20050;-73
2024/03/02 10:04:29;;;;;;;136.07;42.83;;;8.70;100.00;;;;;;5005824;28;20060;-73
2024/03/02 10:07:18;;;;;;;137.20;43.42;;;8.70;100.00;;;;;;5005043;28;20061;-73
2024/03/02 10:09:47;;;;;;;140.90;43.50;;;8.80;100.00;;;;;;4996825;28;20132;-73
2024/03/02 10:12:15;;;;;;;137.13;42.92;;;8.90;100.00;;;;;;5003116;28;20133;-73
2024/03/02 10:14:43;;;;;;;138.10;42.67;;;8.90;100.00;;;;;;5002988;28;20490;-74
2024/03/02 10:17:14;;;;;;;140.27;44.80;;;8.90;100.00;;;;;;5004817;28;20077;-74
2024/03/02 10:19:41;;;;;;;137.32;42.72;;;9.00;100.00;;;;;;4987834;28;20208;-74
2024/03/02 10:22:09;;;;;;;143.98;45.38;;;9.00;100.00;;;;;;4988721;28;20128;-74
2024/03/02 10:24:42;;;;;;;149.98;45.78;;;9.00;100.00;;;;;;4987831;28;20053;-73
2024/03/02 10:27:23;;;;;;;148.20;48.58;;;9.10;100.00;;;;;;5007499;28;20057;-73
2024/03/02 10:29:50;;;;;;;154.20;45.95;;;9.20;100.00;;;;;;4999599;28;20049;-73
2024/03/02 10:32:16;;;;;;;155.90;46.03;;;9.20;100.00;;;;;;4988141;28;20073;-77
2024/03/02 10:34:49;;;;;;;145.82;45.05;;;9.20;100.00;;;;;;5005887;28;20042;-74
2024/03/02 10:37:19;;;;;;;137.48;41.33;;;9.20;100.00;;;;;;5006485;28;20104;-72
2024/03/02 10:39:47;;;;;;;144.10;42.08;;;9.20;100.00;;;;;;5001279;28;20053;-77
2024/03/02 10:42:15;;;;;;;132.90;39.92;;;9.10;100.00;;;;;;5006644;28;20058;-72
2024/03/02 10:44:42;;;;;;;160.48;41.50;;;9.10;100.00;;;;;;5006790;28;20046;-72
2024/03/02 10:47:13;;;;;;;139.35;41.03;;;9.10;100.00;;;;;;5003512;28;20061;-73
2024/03/02 10:49:43;;;;;;;129.75;39.78;;;9.10;100.00;;;;;;4996173;28;20152;-72
2024/03/02 10:52:10;;;;;;;135.52;40.00;;;9.20;100.00;;;;;;4996941;28;20134;-73
2024/03/02 10:54:39;;;;;;;130.27;39.90;;;9.20;100.00;;;;;;5002574;28;20146;-74
2024/03/02 10:57:09;;;;;;;125.13;37.65;;;9.20;100.00;;;;;;4992827;28;20052;-74
2024/03/02 10:59:43;;;;;;;131.57;39.38;;;9.30;100.00;;;;;;4992798;28;20053;-74
2024/03/02 11:02:12;;;;;;;131.82;39.85;;;9.30;100.00;;;;;;4997628;28;20077;-74
2024/03/02 11:04:40;;;;;;;127.93;38.47;;;9.30;100.00;;;;;;4982581;28;20077;-74
2024/03/02 11:07:10;;;;;;;124.22;38.75;;;9.30;100.00;;;;;;5001864;28;20815;-74
2024/03/02 11:09:41;;;;;;;122.45;38.78;;;9.30;100.00;;;;;;4999303;28;20566;-74
2024/03/02 11:12:36;;;;;;;126.45;37.20;;;9.40;100.00;;;;;;4994887;28;20034;-74
2024/03/02 11:15:10;;;;;;;116.65;36.70;;;9.50;100.00;;;;;;4994026;28;20045;-73
2024/03/02 11:17:40;;;;;;;130.38;40.15;;;9.50;100.00;;;;;;4992107;28;20045;-74
2024/03/02 11:20:09;;;;;;;148.23;39.60;;;9.60;100.00;;;;;;4979824;28;20054;-73
2024/03/02 11:22:36;;;;;;;127.63;38.47;;;9.70;100.00;;;;;;4975391;28;20054;-77
2024/03/02 11:25:03;;;;;;;136.85;39.88;;;9.80;100.00;;;;;;4975863;28;20050;-77
2024/03/02 11:27:45;;;;;;;123.65;40.78;;;10.00;100.00;;;;;;4982923;28;20060;-76
2024/03/02 11:30:32;;;;;;;125.95;40.03;;;10.30;100.00;;;;;;4993077;28;20054;-76
2024/03/02 11:33:09;;;;;;;121.00;36.50;;;10.60;100.00;;;;;;4997827;28;20518;-75
2024/03/02 11:35:47;;;;;;;118.15;37.30;;;10.80;100.00;;;;;;4998439;28;20056;-75
2024/03/02 11:38:18;;;;;;;121.05;36.72;;;11.10;100.00;;;;;;4995636;28;20092;-75
2024/03/02 11:40:47;;;;;;;109.13;35.72;;;11.40;100.00;;;;;;4979825;28;20643;-75
2024/03/02 11:43:14;;;;;;;112.05;37.80;;;11.40;100.00;;;;;;4994749;28;20054;-73
2024/03/02 11:45:43;;;;;;;99.65;36.47;;;11.60;100.00;;;;;;4995227;28;20108;-73
2024/03/02 11:48:14;;;;;;;110.93;36.72;;;11.90;100.00;;;;;;4986892;28;20079;-73
2024/03/02 11:50:49;;;;;;;103.95;33.20;;;12.20;100.00;;;;;;5000734;28;20077;-73
2024/03/02 11:53:18;;;;;;;92.28;31.90;;;12.00;100.00;;;;;;4993772;28;20485;-73
2024/03/02 11:55:48;;;;;;;101.53;33.97;;;12.00;100.00;;;;;;4997332;28;20069;-73
2024/03/02 11:58:23;;;;;;;92.00;34.83;;;11.90;100.00;;;;;;4994528;28;20199;-73
2024/03/02 12:00:51;;;;;;;84.35;32.38;;;12.00;100.00;;;;;;5000139;28;20054;-73
2024/03/02 12:03:22;;;;;;;90.78;31.70;;;12.30;100.00;;;;;;4995145;28;20181;-73
2024/03/02 12:05:55;;;;;;;95.72;32.80;;;12.80;100.00;;;;;;4993919;28;20061;-73
2024/03/02 12:08:23;;;;;;;85.50;32.45;;;13.70;100.00;;;;;;4998899;28;20065;-73
2024/03/02 12:11:01;;;;;;;89.15;33.88;;;14.50;100.00;;;;;;4986360;28;20080;-73
2024/03/02 12:13:29;;;;;;;78.38;29.27;;;15.80;100.00;;;;;;5000351;28;20050;-74
2024/03/02 12:15:56;;;;;;;74.43;29.83;;;17.30;100.00;;;;;;4998626;28;20045;-74
2024/03/02 12:18:24;;;;;;;74.43;30.35;;;17.70;100.00;;;;;;4993869;28;20042;-74
2024/03/02 12:20:52;;;;;;;59.33;25.65;;;18.60;100.00;;;;;;4991399;28;20050;-74
2024/03/02 12:23:20;;;;;;;62.65;25.10;;;19.50;100.00;;;;;;4976253;28;20051;-74
2024/03/02 12:25:47;;;;;;;56.75;24.00;;;20.30;100.00;;;;;;4989615;28;20104;-73
2024/03/02 12:28:14;;;;;;;55.38;24.50;;;19.90;100.00;;;;;;4988752;28;20053;-73
2024/03/02 12:30:41;;;;;;;51.88;23.13;;;20.90;100.00;;;;;;4982540;28;20548;-73
2024/03/02 12:33:10;;;;;;;45.58;20.77;;;20.80;100.00;;;;;;5003618;28;20135;-74